sensor_id;sensor_type;location;lat;lon;timestamp;P1;durP1;ratioP1;P2;durP2;ratioP2
25962;SDS011;13760;52.588;13.406;2023-02-28T00:00:08;10.75;;;5.38;;
25962;SDS011;13760;52.588;13.406;2023-02-28T00:02:44;14.73;;;6.00;;
25962;SDS011;13760;52.588;13.406;2023-02-28T00:05:12;12.73;;;5.75;;
25962;SDS011;13760;52.588;13.406;2023-02-28T00:07:43;12.95;;;5.75;;
25962;SDS011;13760;52.588;13.406;2023-02-28T00:10:09;10.10;;;5.25;;
25962;SDS011;13760;52.588;13.406;2023-02-28T00:12:37;10.93;;;5.78;;
25962;SDS011;13760;52.588;13.406;2023-02-28T00:15:08;9.10;;;4.78;;
25962;SDS011;13760;52.588;13.406;2023-02-28T00:17:35;11.13;;;5.22;;
25962;SDS011;13760;52.588;13.406;2023-02-28T00:20:01;11.50;;;5.78;;
25962;SDS011;13760;52.588;13.406;2023-02-28T00:22:28;14.57;;;5.28;;
25962;SDS011;13760;52.588;13.406;2023-02-28T00:24:53;9.85;;;4.75;;
25962;SDS011;13760;52.588;13.406;2023-02-28T00:27:19;11.68;;;5.25;;
25962;SDS011;13760;52.588;13.406;2023-02-28T00:29:46;14.63;;;5.75;;
25962;SDS011;13760;52.588;13.406;2023-02-28T00:32:11;9.77;;;4.93;;
25962;SDS011;13760;52.588;13.406;2023-02-28T00:34:37;8.07;;;4.70;;
25962;SDS011;13760;52.588;13.406;2023-02-28T00:37:04;8.68;;;5.25;;
25962;SDS011;13760;52.588;13.406;2023-02-28T00:39:31;9.93;;;4.78;;
25962;SDS011;13760;52.588;13.406;2023-02-28T00:41:57;11.68;;;4.63;;
25962;SDS011;13760;52.588;13.406;2023-02-28T00:44:23;11.35;;;4.47;;
25962;SDS011;13760;52.588;13.406;2023-02-28T00:46:49;9.85;;;4.43;;
25962;SDS011;13760;52.588;13.406;2023-02-28T00:49:14;11.75;;;4.90;;
25962;SDS011;13760;52.588;13.406;2023-02-28T00:51:40;7.53;;;3.95;;
25962;SDS011;13760;52.588;13.406;2023-02-28T00:54:05;8.63;;;4.88;;
25962;SDS011;13760;52.588;13.406;2023-02-28T00:56:31;8.93;;;4.55;;
25962;SDS011;13760;52.588;13.406;2023-02-28T00:58:57;9.50;;;4.72;;
25962;SDS011;13760;52.588;13.406;2023-02-28T01:01:22;8.75;;;4.50;;
25962;SDS011;13760;52.588;13.406;2023-02-28T01:03:47;8.63;;;4.70;;
25962;SDS011;13760;52.588;13.406;2023-02-28T01:06:13;11.15;;;4.40;;
25962;SDS011;13760;52.588;13.406;2023-02-28T01:08:38;14.40;;;4.45;;
25962;SDS011;13760;52.588;13.406;2023-02-28T01:11:08;8.98;;;4.43;;
25962;SDS011;13760;52.588;13.406;2023-02-28T01:13:35;12.30;;;4.80;;
25962;SDS011;13760;52.588;13.406;2023-02-28T01:16:01;9.05;;;4.43;;
25962;SDS011;13760;52.588;13.406;2023-02-28T01:18:26;10.00;;;4.90;;
25962;SDS011;13760;52.588;13.406;2023-02-28T01:20:53;10.55;;;4.85;;
25962;SDS011;13760;52.588;13.406;2023-02-28T01:23:20;10.40;;;4.60;;
25962;SDS011;13760;52.588;13.406;2023-02-28T01:25:47;10.27;;;4.60;;
25962;SDS011;13760;52.588;13.406;2023-02-28T01:28:12;10.70;;;4.85;;
25962;SDS011;13760;52.588;13.406;2023-02-28T01:30:38;8.60;;;4.18;;
25962;SDS011;13760;52.588;13.406;2023-02-28T01:33:03;8.30;;;4.43;;
25962;SDS011;13760;52.588;13.406;2023-02-28T01:35:31;9.10;;;4.57;;
25962;SDS011;13760;52.588;13.406;2023-02-28T01:37:58;10.63;;;5.03;;
25962;SDS011;13760;52.588;13.406;2023-02-28T01:40:24;11.30;;;5.25;;
25962;SDS011;13760;52.588;13.406;2023-02-28T01:42:49;10.98;;;4.53;;
25962;SDS011;13760;52.588;13.406;2023-02-28T01:47:55;10.73;;;4.55;;
25962;SDS011;13760;52.588;13.406;2023-02-28T01:50:24;8.75;;;4.78;;
25962;SDS011;13760;52.588;13.406;2023-02-28T01:52:53;9.70;;;4.35;;
25962;SDS011;13760;52.588;13.406;2023-02-28T01:55:21;9.85;;;5.25;;
25962;SDS011;13760;52.588;13.406;2023-02-28T01:57:54;8.82;;;4.70;;
25962;SDS011;13760;52.588;13.406;2023-02-28T02:00:22;8.45;;;4.78;;
25962;SDS011;13760;52.588;13.406;2023-02-28T02:02:52;9.30;;;4.68;;
25962;SDS011;13760;52.588;13.406;2023-02-28T02:05:25;10.73;;;5.03;;
25962;SDS011;13760;52.588;13.406;2023-02-28T02:08:04;10.85;;;4.90;;
25962;SDS011;13760;52.588;13.406;2023-02-28T02:10:34;8.73;;;4.95;;
25962;SDS011;13760;52.588;13.406;2023-02-28T02:22:01;10.35;;;4.80;;
25962;SDS011;13760;52.588;13.406;2023-02-28T02:30:37;8.75;;;5.05;;
25962;SDS011;13760;52.588;13.406;2023-02-28T02:33:28;12.10;;;5.13;;
25962;SDS011;13760;52.588;13.406;2023-02-28T02:39:10;12.98;;;5.45;;
25962;SDS011;13760;52.588;13.406;2023-02-28T02:46:57;10.32;;;5.00;;
25962;SDS011;13760;52.588;13.406;2023-02-28T02:49:28;12.10;;;5.75;;
25962;SDS011;13760;52.588;13.406;2023-02-28T02:51:57;14.07;;;5.75;;
25962;SDS011;13760;52.588;13.406;2023-02-28T02:54:32;11.15;;;5.88;;
25962;SDS011;13760;52.588;13.406;2023-02-28T02:57:02;13.07;;;5.93;;
25962;SDS011;13760;52.588;13.406;2023-02-28T02:59:30;11.48;;;5.80;;
25962;SDS011;13760;52.588;13.406;2023-02-28T03:01:57;10.45;;;5.75;;
25962;SDS011;13760;52.588;13.406;2023-02-28T03:04:30;9.70;;;5.57;;
25962;SDS011;13760;52.588;13.406;2023-02-28T03:06:59;12.18;;;5.93;;
25962;SDS011;13760;52.588;13.406;2023-02-28T03:09:25;11.98;;;6.15;;
25962;SDS011;13760;52.588;13.406;2023-02-28T03:11:52;15.43;;;6.28;;
25962;SDS011;13760;52.588;13.406;2023-02-28T03:14:30;10.38;;;5.60;;
25962;SDS011;13760;52.588;13.406;2023-02-28T03:17:09;12.07;;;5.80;;
25962;SDS011;13760;52.588;13.406;2023-02-28T03:22:45;11.85;;;6.20;;
25962;SDS011;13760;52.588;13.406;2023-02-28T03:25:21;15.55;;;5.93;;
25962;SDS011;13760;52.588;13.406;2023-02-28T03:33:21;11.10;;;6.18;;
25962;SDS011;13760;52.588;13.406;2023-02-28T03:36:02;12.23;;;5.80;;
25962;SDS011;13760;52.588;13.406;2023-02-28T03:41:32;13.50;;;6.57;;
25962;SDS011;13760;52.588;13.406;2023-02-28T03:44:17;13.63;;;6.72;;
25962;SDS011;13760;52.588;13.406;2023-02-28T03:46:57;14.38;;;6.47;;
25962;SDS011;13760;52.588;13.406;2023-02-28T03:49:30;13.45;;;6.53;;
25962;SDS011;13760;52.588;13.406;2023-02-28T03:52:18;12.07;;;6.47;;
25962;SDS011;13760;52.588;13.406;2023-02-28T03:54:48;14.10;;;6.82;;
25962;SDS011;13760;52.588;13.406;2023-02-28T03:57:22;15.45;;;6.80;;
25962;SDS011;13760;52.588;13.406;2023-02-28T03:59:50;13.90;;;6.55;;
25962;SDS011;13760;52.588;13.406;2023-02-28T04:02:22;12.50;;;6.53;;
25962;SDS011;13760;52.588;13.406;2023-02-28T04:04:48;14.55;;;6.65;;
25962;SDS011;13760;52.588;13.406;2023-02-28T04:07:14;13.48;;;6.32;;
25962;SDS011;13760;52.588;13.406;2023-02-28T04:09:40;10.95;;;6.28;;
25962;SDS011;13760;52.588;13.406;2023-02-28T04:12:06;16.95;;;7.05;;
25962;SDS011;13760;52.588;13.406;2023-02-28T04:14:32;13.43;;;6.85;;
25962;SDS011;13760;52.588;13.406;2023-02-28T04:16:57;12.13;;;6.57;;
25962;SDS011;13760;52.588;13.406;2023-02-28T04:19:23;14.85;;;6.50;;
25962;SDS011;13760;52.588;13.406;2023-02-28T04:21:50;13.80;;;6.35;;
25962;SDS011;13760;52.588;13.406;2023-02-28T04:24:20;14.57;;;6.80;;
25962;SDS011;13760;52.588;13.406;2023-02-28T04:26:49;14.85;;;6.30;;
25962;SDS011;13760;52.588;13.406;2023-02-28T04:29:20;13.50;;;6.78;;
25962;SDS011;13760;52.588;13.406;2023-02-28T04:31:50;13.32;;;6.47;;
25962;SDS011;13760;52.588;13.406;2023-02-28T04:34:18;13.98;;;6.25;;
25962;SDS011;13760;52.588;13.406;2023-02-28T04:36:44;12.05;;;7.18;;
25962;SDS011;13760;52.588;13.406;2023-02-28T04:39:10;13.40;;;6.63;;
25962;SDS011;13760;52.588;13.406;2023-02-28T04:41:36;15.00;;;6.78;;
25962;SDS011;13760;52.588;13.406;2023-02-28T04:44:02;12.48;;;6.97;;
25962;SDS011;13760;52.588;13.406;2023-02-28T04:46:28;16.27;;;6.93;;
25962;SDS011;13760;52.588;13.406;2023-02-28T04:48:55;12.60;;;6.78;;
25962;SDS011;13760;52.588;13.406;2023-02-28T04:51:20;15.10;;;6.90;;
25962;SDS011;13760;52.588;13.406;2023-02-28T04:53:46;15.98;;;7.80;;
25962;SDS011;13760;52.588;13.406;2023-02-28T04:56:13;12.85;;;6.95;;
25962;SDS011;13760;52.588;13.406;2023-02-28T04:58:40;17.08;;;8.32;;
25962;SDS011;13760;52.588;13.406;2023-02-28T05:01:06;11.43;;;6.93;;
25962;SDS011;13760;52.588;13.406;2023-02-28T05:03:42;13.57;;;6.85;;
25962;SDS011;13760;52.588;13.406;2023-02-28T05:06:10;15.27;;;7.63;;
25962;SDS011;13760;52.588;13.406;2023-02-28T05:08:37;13.30;;;7.10;;
25962;SDS011;13760;52.588;13.406;2023-02-28T05:11:03;14.18;;;7.90;;
25962;SDS011;13760;52.588;13.406;2023-02-28T05:13:29;15.23;;;8.20;;
25962;SDS011;13760;52.588;13.406;2023-02-28T05:15:55;14.88;;;7.80;;
25962;SDS011;13760;52.588;13.406;2023-02-28T05:18:21;14.88;;;7.47;;
25962;SDS011;13760;52.588;13.406;2023-02-28T05:20:47;21.67;;;7.85;;
25962;SDS011;13760;52.588;13.406;2023-02-28T05:23:12;15.20;;;7.82;;
25962;SDS011;13760;52.588;13.406;2023-02-28T05:25:39;15.02;;;7.40;;
25962;SDS011;13760;52.588;13.406;2023-02-28T05:28:05;17.55;;;8.02;;
25962;SDS011;13760;52.588;13.406;2023-02-28T05:30:32;17.65;;;8.25;;
25962;SDS011;13760;52.588;13.406;2023-02-28T05:33:01;17.17;;;8.60;;
25962;SDS011;13760;52.588;13.406;2023-02-28T05:35:28;23.23;;;9.07;;
25962;SDS011;13760;52.588;13.406;2023-02-28T05:37:53;18.23;;;7.93;;
25962;SDS011;13760;52.588;13.406;2023-02-28T05:40:19;18.30;;;8.70;;
25962;SDS011;13760;52.588;13.406;2023-02-28T05:42:45;23.85;;;8.73;;
25962;SDS011;13760;52.588;13.406;2023-02-28T05:45:11;18.35;;;8.80;;
25962;SDS011;13760;52.588;13.406;2023-02-28T05:47:37;23.73;;;8.75;;
25962;SDS011;13760;52.588;13.406;2023-02-28T05:50:03;18.20;;;9.48;;
25962;SDS011;13760;52.588;13.406;2023-02-28T05:52:29;20.58;;;9.85;;
25962;SDS011;13760;52.588;13.406;2023-02-28T05:54:55;17.75;;;8.73;;
25962;SDS011;13760;52.588;13.406;2023-02-28T05:57:27;20.02;;;9.32;;
25962;SDS011;13760;52.588;13.406;2023-02-28T05:59:56;20.90;;;9.45;;
25962;SDS011;13760;52.588;13.406;2023-02-28T06:02:23;24.30;;;9.50;;
25962;SDS011;13760;52.588;13.406;2023-02-28T06:04:49;20.48;;;9.20;;
25962;SDS011;13760;52.588;13.406;2023-02-28T06:07:17;22.48;;;9.50;;
25962;SDS011;13760;52.588;13.406;2023-02-28T06:09:43;22.05;;;9.95;;
25962;SDS011;13760;52.588;13.406;2023-02-28T06:12:09;16.40;;;8.90;;
25962;SDS011;13760;52.588;13.406;2023-02-28T06:14:35;19.08;;;9.23;;
25962;SDS011;13760;52.588;13.406;2023-02-28T06:17:01;19.23;;;9.30;;
25962;SDS011;13760;52.588;13.406;2023-02-28T06:19:28;19.85;;;9.52;;
25962;SDS011;13760;52.588;13.406;2023-02-28T06:21:55;20.10;;;9.27;;
25962;SDS011;13760;52.588;13.406;2023-02-28T06:24:22;23.08;;;9.75;;
25962;SDS011;13760;52.588;13.406;2023-02-28T06:26:48;19.08;;;9.98;;
25962;SDS011;13760;52.588;13.406;2023-02-28T06:29:14;16.67;;;9.38;;
25962;SDS011;13760;52.588;13.406;2023-02-28T06:31:41;20.13;;;10.15;;
25962;SDS011;13760;52.588;13.406;2023-02-28T06:34:09;25.48;;;11.50;;
25962;SDS011;13760;52.588;13.406;2023-02-28T06:36:36;21.45;;;11.75;;
25962;SDS011;13760;52.588;13.406;2023-02-28T06:39:02;24.88;;;10.95;;
25962;SDS011;13760;52.588;13.406;2023-02-28T06:41:28;21.27;;;11.38;;
25962;SDS011;13760;52.588;13.406;2023-02-28T06:43:53;22.23;;;11.18;;
25962;SDS011;13760;52.588;13.406;2023-02-28T06:46:19;22.65;;;11.63;;
25962;SDS011;13760;52.588;13.406;2023-02-28T06:48:45;24.65;;;11.77;;
25962;SDS011;13760;52.588;13.406;2023-02-28T06:51:16;28.77;;;11.88;;
25962;SDS011;13760;52.588;13.406;2023-02-28T06:53:43;25.33;;;12.32;;
25962;SDS011;13760;52.588;13.406;2023-02-28T06:59:23;24.95;;;11.38;;
25962;SDS011;13760;52.588;13.406;2023-02-28T07:01:49;21.92;;;10.95;;
25962;SDS011;13760;52.588;13.406;2023-02-28T07:04:14;23.65;;;11.27;;
25962;SDS011;13760;52.588;13.406;2023-02-28T07:06:40;22.58;;;11.00;;
25962;SDS011;13760;52.588;13.406;2023-02-28T07:09:06;23.50;;;12.13;;
25962;SDS011;13760;52.588;13.406;2023-02-28T07:11:31;22.90;;;11.02;;
25962;SDS011;13760;52.588;13.406;2023-02-28T07:13:57;20.40;;;10.75;;
25962;SDS011;13760;52.588;13.406;2023-02-28T07:16:23;24.75;;;11.55;;
25962;SDS011;13760;52.588;13.406;2023-02-28T07:18:51;20.02;;;11.93;;
25962;SDS011;13760;52.588;13.406;2023-02-28T07:21:18;28.08;;;11.55;;
25962;SDS011;13760;52.588;13.406;2023-02-28T07:23:44;21.92;;;11.07;;
25962;SDS011;13760;52.588;13.406;2023-02-28T07:26:13;28.73;;;12.23;;
25962;SDS011;13760;52.588;13.406;2023-02-28T07:28:41;22.63;;;10.88;;
25962;SDS011;13760;52.588;13.406;2023-02-28T07:31:07;26.63;;;12.00;;
25962;SDS011;13760;52.588;13.406;2023-02-28T07:33:34;20.40;;;10.85;;
25962;SDS011;13760;52.588;13.406;2023-02-28T07:36:04;19.30;;;11.05;;
25962;SDS011;13760;52.588;13.406;2023-02-28T07:38:44;19.30;;;10.30;;
25962;SDS011;13760;52.588;13.406;2023-02-28T07:41:13;21.25;;;11.18;;
25962;SDS011;13760;52.588;13.406;2023-02-28T07:43:39;22.42;;;10.80;;
25962;SDS011;13760;52.588;13.406;2023-02-28T07:46:06;21.73;;;10.75;;
25962;SDS011;13760;52.588;13.406;2023-02-28T07:48:34;24.67;;;12.00;;
25962;SDS011;13760;52.588;13.406;2023-02-28T07:50:59;26.75;;;12.95;;
25962;SDS011;13760;52.588;13.406;2023-02-28T07:53:26;27.95;;;12.05;;
25962;SDS011;13760;52.588;13.406;2023-02-28T07:55:55;25.83;;;11.35;;
25962;SDS011;13760;52.588;13.406;2023-02-28T07:58:21;26.05;;;12.45;;
25962;SDS011;13760;52.588;13.406;2023-02-28T08:00:47;26.98;;;11.18;;
25962;SDS011;13760;52.588;13.406;2023-02-28T08:03:13;27.23;;;11.70;;
25962;SDS011;13760;52.588;13.406;2023-02-28T08:05:39;20.55;;;12.07;;
25962;SDS011;13760;52.588;13.406;2023-02-28T08:08:05;25.80;;;12.15;;
25962;SDS011;13760;52.588;13.406;2023-02-28T08:10:31;23.58;;;10.15;;
25962;SDS011;13760;52.588;13.406;2023-02-28T08:12:57;20.70;;;10.35;;
25962;SDS011;13760;52.588;13.406;2023-02-28T08:15:23;20.73;;;10.38;;
25962;SDS011;13760;52.588;13.406;2023-02-28T08:17:49;21.33;;;10.02;;
25962;SDS011;13760;52.588;13.406;2023-02-28T08:20:14;15.05;;;9.07;;
25962;SDS011;13760;52.588;13.406;2023-02-28T08:22:40;17.08;;;9.93;;
25962;SDS011;13760;52.588;13.406;2023-02-28T08:25:06;19.63;;;9.18;;
25962;SDS011;13760;52.588;13.406;2023-02-28T08:27:32;19.83;;;8.77;;
25962;SDS011;13760;52.588;13.406;2023-02-28T08:29:58;18.88;;;8.45;;
25962;SDS011;13760;52.588;13.406;2023-02-28T08:32:24;17.42;;;8.35;;
25962;SDS011;13760;52.588;13.406;2023-02-28T08:34:50;13.40;;;7.20;;
25962;SDS011;13760;52.588;13.406;2023-02-28T08:37:16;17.80;;;8.45;;
25962;SDS011;13760;52.588;13.406;2023-02-28T08:39:42;10.35;;;5.85;;
25962;SDS011;13760;52.588;13.406;2023-02-28T08:42:07;10.95;;;5.90;;
25962;SDS011;13760;52.588;13.406;2023-02-28T08:44:36;9.75;;;5.18;;
25962;SDS011;13760;52.588;13.406;2023-02-28T08:47:04;10.35;;;5.40;;
25962;SDS011;13760;52.588;13.406;2023-02-28T08:49:30;7.55;;;4.28;;
25962;SDS011;13760;52.588;13.406;2023-02-28T08:51:56;9.80;;;4.65;;
25962;SDS011;13760;52.588;13.406;2023-02-28T08:54:22;8.23;;;3.70;;
25962;SDS011;13760;52.588;13.406;2023-02-28T08:56:48;6.32;;;2.78;;
25962;SDS011;13760;52.588;13.406;2023-02-28T08:59:13;6.50;;;3.15;;
25962;SDS011;13760;52.588;13.406;2023-02-28T09:01:39;4.25;;;2.30;;
25962;SDS011;13760;52.588;13.406;2023-02-28T09:04:06;5.18;;;3.40;;
25962;SDS011;13760;52.588;13.406;2023-02-28T09:06:33;7.07;;;3.80;;
25962;SDS011;13760;52.588;13.406;2023-02-28T09:08:59;5.50;;;3.13;;
25962;SDS011;13760;52.588;13.406;2023-02-28T09:11:26;5.30;;;3.05;;
25962;SDS011;13760;52.588;13.406;2023-02-28T09:13:52;5.50;;;3.05;;
25962;SDS011;13760;52.588;13.406;2023-02-28T09:16:17;7.07;;;3.65;;
25962;SDS011;13760;52.588;13.406;2023-02-28T09:18:43;9.02;;;3.58;;
25962;SDS011;13760;52.588;13.406;2023-02-28T09:21:12;6.85;;;3.85;;
25962;SDS011;13760;52.588;13.406;2023-02-28T09:23:40;9.10;;;3.60;;
25962;SDS011;13760;52.588;13.406;2023-02-28T09:26:07;6.80;;;2.78;;
25962;SDS011;13760;52.588;13.406;2023-02-28T09:28:37;4.88;;;2.78;;
25962;SDS011;13760;52.588;13.406;2023-02-28T09:31:03;5.82;;;2.70;;
25962;SDS011;13760;52.588;13.406;2023-02-28T09:33:29;5.50;;;2.42;;
25962;SDS011;13760;52.588;13.406;2023-02-28T09:35:59;6.82;;;2.17;;
25962;SDS011;13760;52.588;13.406;2023-02-28T09:38:25;5.93;;;2.65;;
25962;SDS011;13760;52.588;13.406;2023-02-28T09:40:53;5.70;;;2.40;;
25962;SDS011;13760;52.588;13.406;2023-02-28T09:43:26;6.07;;;2.53;;
25962;SDS011;13760;52.588;13.406;2023-02-28T09:46:00;3.85;;;2.30;;
25962;SDS011;13760;52.588;13.406;2023-02-28T09:48:50;3.47;;;2.30;;
25962;SDS011;13760;52.588;13.406;2023-02-28T09:54:10;6.25;;;2.45;;
25962;SDS011;13760;52.588;13.406;2023-02-28T09:56:45;4.70;;;1.80;;
25962;SDS011;13760;52.588;13.406;2023-02-28T10:02:51;3.72;;;2.05;;
25962;SDS011;13760;52.588;13.406;2023-02-28T10:05:30;4.88;;;1.85;;
25962;SDS011;13760;52.588;13.406;2023-02-28T10:08:02;3.65;;;1.30;;
25962;SDS011;13760;52.588;13.406;2023-02-28T10:13:15;2.58;;;1.60;;
25962;SDS011;13760;52.588;13.406;2023-02-28T10:16:03;4.15;;;1.52;;
25962;SDS011;13760;52.588;13.406;2023-02-28T10:18:45;2.80;;;1.45;;
25962;SDS011;13760;52.588;13.406;2023-02-28T10:22:00;10.88;;;1.60;;
25962;SDS011;13760;52.588;13.406;2023-02-28T10:24:13;4.32;;;1.90;;
25962;SDS011;13760;52.588;13.406;2023-02-28T10:26:46;4.85;;;1.95;;
25962;SDS011;13760;52.588;13.406;2023-02-28T10:29:13;2.60;;;1.83;;
25962;SDS011;13760;52.588;13.406;2023-02-28T10:31:39;3.45;;;1.98;;
25962;SDS011;13760;52.588;13.406;2023-02-28T10:34:05;4.40;;;2.00;;
25962;SDS011;13760;52.588;13.406;2023-02-28T10:36:32;4.07;;;2.10;;
25962;SDS011;13760;52.588;13.406;2023-02-28T10:38:57;8.00;;;2.03;;
25962;SDS011;13760;52.588;13.406;2023-02-28T10:41:29;4.18;;;2.00;;
25962;SDS011;13760;52.588;13.406;2023-02-28T10:44:13;6.88;;;2.17;;
25962;SDS011;13760;52.588;13.406;2023-02-28T10:46:39;3.63;;;2.30;;
25962;SDS011;13760;52.588;13.406;2023-02-28T10:49:11;5.15;;;2.25;;
25962;SDS011;13760;52.588;13.406;2023-02-28T10:51:49;5.60;;;1.98;;
25962;SDS011;13760;52.588;13.406;2023-02-28T10:54:22;7.93;;;2.10;;
25962;SDS011;13760;52.588;13.406;2023-02-28T10:59:44;4.57;;;2.20;;
25962;SDS011;13760;52.588;13.406;2023-02-28T11:02:29;3.90;;;1.77;;
25962;SDS011;13760;52.588;13.406;2023-02-28T11:04:59;4.03;;;2.08;;
25962;SDS011;13760;52.588;13.406;2023-02-28T11:07:25;5.50;;;1.88;;
25962;SDS011;13760;52.588;13.406;2023-02-28T11:09:53;3.53;;;2.15;;
25962;SDS011;13760;52.588;13.406;2023-02-28T11:12:37;6.47;;;2.63;;
25962;SDS011;13760;52.588;13.406;2023-02-28T11:15:05;5.13;;;2.50;;
25962;SDS011;13760;52.588;13.406;2023-02-28T11:17:53;4.30;;;1.80;;
25962;SDS011;13760;52.588;13.406;2023-02-28T11:20:43;4.70;;;2.20;;
25962;SDS011;13760;52.588;13.406;2023-02-28T11:23:17;4.20;;;2.00;;
25962;SDS011;13760;52.588;13.406;2023-02-28T11:25:52;3.25;;;1.95;;
25962;SDS011;13760;52.588;13.406;2023-02-28T11:28:32;3.60;;;1.90;;
25962;SDS011;13760;52.588;13.406;2023-02-28T11:36:29;3.50;;;2.22;;
25962;SDS011;13760;52.588;13.406;2023-02-28T11:38:58;5.70;;;2.45;;
25962;SDS011;13760;52.588;13.406;2023-02-28T11:46:52;5.80;;;2.20;;
25962;SDS011;13760;52.588;13.406;2023-02-28T11:52:14;6.13;;;2.72;;
25962;SDS011;13760;52.588;13.406;2023-02-28T11:58:05;5.55;;;2.70;;
25962;SDS011;13760;52.588;13.406;2023-02-28T12:03:43;3.80;;;2.58;;
25962;SDS011;13760;52.588;13.406;2023-02-28T12:06:45;3.53;;;2.35;;
25962;SDS011;13760;52.588;13.406;2023-02-28T12:12:16;6.40;;;3.03;;
25962;SDS011;13760;52.588;13.406;2023-02-28T12:14:55;6.53;;;2.55;;
25962;SDS011;13760;52.588;13.406;2023-02-28T12:23:22;7.50;;;2.78;;
25962;SDS011;13760;52.588;13.406;2023-02-28T12:28:49;6.60;;;2.97;;
25962;SDS011;13760;52.588;13.406;2023-02-28T12:31:21;4.90;;;2.90;;
25962;SDS011;13760;52.588;13.406;2023-02-28T12:33:52;5.22;;;2.63;;
25962;SDS011;13760;52.588;13.406;2023-02-28T12:36:21;8.48;;;3.08;;
25962;SDS011;13760;52.588;13.406;2023-02-28T12:38:51;5.70;;;3.03;;
25962;SDS011;13760;52.588;13.406;2023-02-28T12:41:29;4.32;;;2.72;;
25962;SDS011;13760;52.588;13.406;2023-02-28T12:46:59;4.95;;;3.10;;
25962;SDS011;13760;52.588;13.406;2023-02-28T12:49:33;4.00;;;2.83;;
25962;SDS011;13760;52.588;13.406;2023-02-28T12:52:04;8.25;;;3.67;;
25962;SDS011;13760;52.588;13.406;2023-02-28T12:59:39;5.57;;;3.30;;
25962;SDS011;13760;52.588;13.406;2023-02-28T13:02:32;6.03;;;3.70;;
25962;SDS011;13760;52.588;13.406;2023-02-28T13:10:59;5.80;;;3.15;;
25962;SDS011;13760;52.588;13.406;2023-02-28T13:13:25;7.28;;;3.85;;
25962;SDS011;13760;52.588;13.406;2023-02-28T13:16:08;6.25;;;3.30;;
25962;SDS011;13760;52.588;13.406;2023-02-28T13:18:39;5.30;;;3.30;;
25962;SDS011;13760;52.588;13.406;2023-02-28T13:21:09;6.82;;;3.20;;
25962;SDS011;13760;52.588;13.406;2023-02-28T13:27:10;5.07;;;3.20;;
25962;SDS011;13760;52.588;13.406;2023-02-28T13:34:30;6.18;;;3.20;;
25962;SDS011;13760;52.588;13.406;2023-02-28T13:42:23;6.63;;;3.33;;
25962;SDS011;13760;52.588;13.406;2023-02-28T13:47:33;4.70;;;3.05;;
25962;SDS011;13760;52.588;13.406;2023-02-28T13:53:26;5.30;;;3.40;;
25962;SDS011;13760;52.588;13.406;2023-02-28T13:56:17;5.18;;;3.08;;
25962;SDS011;13760;52.588;13.406;2023-02-28T13:58:57;8.50;;;3.50;;
25962;SDS011;13760;52.588;13.406;2023-02-28T14:07:05;8.10;;;3.38;;
25962;SDS011;13760;52.588;13.406;2023-02-28T14:09:37;4.10;;;2.80;;
25962;SDS011;13760;52.588;13.406;2023-02-28T14:20:54;9.55;;;3.28;;
25962;SDS011;13760;52.588;13.406;2023-02-28T14:30:03;7.15;;;3.35;;
25962;SDS011;13760;52.588;13.406;2023-02-28T14:33:14;6.82;;;3.10;;
25962;SDS011;13760;52.588;13.406;2023-02-28T14:35:59;3.97;;;2.90;;
25962;SDS011;13760;52.588;13.406;2023-02-28T14:38:52;6.32;;;3.33;;
25962;SDS011;13760;52.588;13.406;2023-02-28T14:43:49;5.20;;;3.20;;
25962;SDS011;13760;52.588;13.406;2023-02-28T14:46:16;5.07;;;3.03;;
25962;SDS011;13760;52.588;13.406;2023-02-28T14:48:45;7.40;;;3.05;;
25962;SDS011;13760;52.588;13.406;2023-02-28T14:51:19;6.95;;;3.28;;
25962;SDS011;13760;52.588;13.406;2023-02-28T14:53:48;5.70;;;3.13;;
25962;SDS011;13760;52.588;13.406;2023-02-28T14:56:19;9.65;;;3.20;;
25962;SDS011;13760;52.588;13.406;2023-02-28T14:58:52;5.25;;;3.30;;
25962;SDS011;13760;52.588;13.406;2023-02-28T15:01:20;6.57;;;3.33;;
25962;SDS011;13760;52.588;13.406;2023-02-28T15:03:47;7.85;;;3.35;;
25962;SDS011;13760;52.588;13.406;2023-02-28T15:06:21;4.65;;;3.28;;
25962;SDS011;13760;52.588;13.406;2023-02-28T15:08:48;7.55;;;3.40;;
25962;SDS011;13760;52.588;13.406;2023-02-28T15:11:34;7.60;;;3.22;;
25962;SDS011;13760;52.588;13.406;2023-02-28T15:14:00;5.85;;;3.70;;
25962;SDS011;13760;52.588;13.406;2023-02-28T15:19:11;9.05;;;4.20;;
25962;SDS011;13760;52.588;13.406;2023-02-28T15:21:39;5.18;;;3.15;;
25962;SDS011;13760;52.588;13.406;2023-02-28T15:24:16;6.93;;;3.58;;
25962;SDS011;13760;52.588;13.406;2023-02-28T15:27:14;5.63;;;3.58;;
25962;SDS011;13760;52.588;13.406;2023-02-28T15:29:59;6.93;;;3.50;;
25962;SDS011;13760;52.588;13.406;2023-02-28T15:37:53;5.93;;;3.90;;
25962;SDS011;13760;52.588;13.406;2023-02-28T15:40:28;6.88;;;3.92;;
25962;SDS011;13760;52.588;13.406;2023-02-28T15:45:51;7.43;;;3.78;;
25962;SDS011;13760;52.588;13.406;2023-02-28T15:48:22;6.25;;;3.67;;
25962;SDS011;13760;52.588;13.406;2023-02-28T15:50:54;7.75;;;3.60;;
25962;SDS011;13760;52.588;13.406;2023-02-28T15:53:25;8.45;;;4.07;;
25962;SDS011;13760;52.588;13.406;2023-02-28T15:55:56;8.55;;;4.20;;
25962;SDS011;13760;52.588;13.406;2023-02-28T15:58:31;10.45;;;4.38;;
25962;SDS011;13760;52.588;13.406;2023-02-28T16:01:05;7.10;;;3.90;;
25962;SDS011;13760;52.588;13.406;2023-02-28T16:03:56;9.20;;;4.32;;
25962;SDS011;13760;52.588;13.406;2023-02-28T16:06:32;6.82;;;3.45;;
25962;SDS011;13760;52.588;13.406;2023-02-28T16:09:03;7.05;;;4.57;;
25962;SDS011;13760;52.588;13.406;2023-02-28T16:11:29;7.03;;;4.13;;
25962;SDS011;13760;52.588;13.406;2023-02-28T16:14:03;10.07;;;4.72;;
25962;SDS011;13760;52.588;13.406;2023-02-28T16:16:29;7.20;;;4.13;;
25962;SDS011;13760;52.588;13.406;2023-02-28T16:18:56;5.80;;;3.67;;
25962;SDS011;13760;52.588;13.406;2023-02-28T16:21:21;7.75;;;4.30;;
25962;SDS011;13760;52.588;13.406;2023-02-28T16:23:47;9.20;;;4.55;;
25962;SDS011;13760;52.588;13.406;2023-02-28T16:26:21;6.03;;;3.85;;
25962;SDS011;13760;52.588;13.406;2023-02-28T16:28:48;8.63;;;4.20;;
25962;SDS011;13760;52.588;13.406;2023-02-28T16:31:14;8.32;;;4.60;;
25962;SDS011;13760;52.588;13.406;2023-02-28T16:33:41;6.57;;;4.22;;
25962;SDS011;13760;52.588;13.406;2023-02-28T16:36:13;7.97;;;4.28;;
25962;SDS011;13760;52.588;13.406;2023-02-28T16:38:39;9.88;;;4.85;;
25962;SDS011;13760;52.588;13.406;2023-02-28T16:41:05;8.07;;;4.18;;
25962;SDS011;13760;52.588;13.406;2023-02-28T16:43:36;9.07;;;4.57;;
25962;SDS011;13760;52.588;13.406;2023-02-28T16:46:03;7.30;;;4.25;;
25962;SDS011;13760;52.588;13.406;2023-02-28T16:48:31;11.85;;;4.80;;
25962;SDS011;13760;52.588;13.406;2023-02-28T16:50:56;8.05;;;4.28;;
25962;SDS011;13760;52.588;13.406;2023-02-28T16:53:22;8.07;;;4.63;;
25962;SDS011;13760;52.588;13.406;2023-02-28T16:55:48;7.63;;;4.32;;
25962;SDS011;13760;52.588;13.406;2023-02-28T16:58:15;7.15;;;4.47;;
25962;SDS011;13760;52.588;13.406;2023-02-28T17:00:45;9.15;;;4.82;;
25962;SDS011;13760;52.588;13.406;2023-02-28T17:03:24;9.13;;;4.60;;
25962;SDS011;13760;52.588;13.406;2023-02-28T17:05:52;7.63;;;4.60;;
25962;SDS011;13760;52.588;13.406;2023-02-28T17:08:18;8.48;;;4.72;;
25962;SDS011;13760;52.588;13.406;2023-02-28T17:10:43;8.63;;;4.60;;
25962;SDS011;13760;52.588;13.406;2023-02-28T17:13:09;10.20;;;5.53;;